sensor_id;sensor_type;location;lat;lon;timestamp;P1;durP1;ratioP1;P2;durP2;ratioP2
45863;SDS011;31579;52.354;16.974;2023-02-26T00:04:07;4.60;;;1.30;;
45863;SDS011;31579;52.354;16.974;2023-02-26T00:09:07;4.60;;;1.30;;
45863;SDS011;31579;52.354;16.974;2023-02-26T00:14:08;4.90;;;1.40;;
45863;SDS011;31579;52.354;16.974;2023-02-26T00:19:09;4.90;;;1.40;;
45863;SDS011;31579;52.354;16.974;2023-02-26T00:24:07;4.40;;;1.40;;
45863;SDS011;31579;52.354;16.974;2023-02-26T00:29:07;4.40;;;1.40;;
45863;SDS011;31579;52.354;16.974;2023-02-26T00:34:09;3.80;;;1.10;;
45863;SDS011;31579;52.354;16.974;2023-02-26T00:44:16;3.70;;;1.10;;
45863;SDS011;31579;52.354;16.974;2023-02-26T00:59:16;3.60;;;1.30;;
45863;SDS011;31579;52.354;16.974;2023-02-26T01:04:18;4.40;;;1.00;;
45863;SDS011;31579;52.354;16.974;2023-02-26T01:09:22;4.40;;;1.00;;
45863;SDS011;31579;52.354;16.974;2023-02-26T01:14:16;6.00;;;1.30;;
45863;SDS011;31579;52.354;16.974;2023-02-26T01:19:19;6.00;;;1.30;;
45863;SDS011;31579;52.354;16.974;2023-02-26T01:24:16;3.30;;;1.30;;
45863;SDS011;31579;52.354;16.974;2023-02-26T01:29:16;3.30;;;1.30;;
45863;SDS011;31579;52.354;16.974;2023-02-26T01:34:18;3.70;;;1.30;;
45863;SDS011;31579;52.354;16.974;2023-02-26T01:49:16;3.60;;;1.20;;
45863;SDS011;31579;52.354;16.974;2023-02-26T01:54:17;3.90;;;0.90;;
45863;SDS011;31579;52.354;16.974;2023-02-26T01:59:20;3.90;;;0.90;;
45863;SDS011;31579;52.354;16.974;2023-02-26T02:04:16;4.10;;;1.30;;
45863;SDS011;31579;52.354;16.974;2023-02-26T02:09:16;4.10;;;1.30;;
45863;SDS011;31579;52.354;16.974;2023-02-26T02:24:23;4.10;;;0.80;;
45863;SDS011;31579;52.354;16.974;2023-02-26T02:29:21;4.10;;;0.80;;
45863;SDS011;31579;52.354;16.974;2023-02-26T02:34:18;4.70;;;0.90;;
45863;SDS011;31579;52.354;16.974;2023-02-26T02:39:19;4.70;;;0.90;;
45863;SDS011;31579;52.354;16.974;2023-02-26T02:44:17;3.30;;;1.00;;
45863;SDS011;31579;52.354;16.974;2023-02-26T02:49:20;3.30;;;1.00;;
45863;SDS011;31579;52.354;16.974;2023-02-26T02:54:21;4.60;;;1.10;;
45863;SDS011;31579;52.354;16.974;2023-02-26T02:59:20;4.60;;;1.10;;
45863;SDS011;31579;52.354;16.974;2023-02-26T03:04:16;3.50;;;1.00;;
45863;SDS011;31579;52.354;16.974;2023-02-26T03:09:16;3.50;;;1.00;;
45863;SDS011;31579;52.354;16.974;2023-02-26T03:14:16;3.40;;;1.00;;
45863;SDS011;31579;52.354;16.974;2023-02-26T03:22:08;3.40;;;1.00;;
45863;SDS011;31579;52.354;16.974;2023-02-26T03:32:05;3.70;;;1.00;;
45863;SDS011;31579;52.354;16.974;2023-02-26T03:37:07;3.90;;;1.20;;
45863;SDS011;31579;52.354;16.974;2023-02-26T03:45:44;3.20;;;0.80;;
45863;SDS011;31579;52.354;16.974;2023-02-26T03:55:48;5.80;;;1.20;;
45863;SDS011;31579;52.354;16.974;2023-02-26T04:00:43;5.80;;;1.20;;
45863;SDS011;31579;52.354;16.974;2023-02-26T04:05:44;3.20;;;0.80;;
45863;SDS011;31579;52.354;16.974;2023-02-26T04:13:01;3.90;;;1.00;;
45863;SDS011;31579;52.354;16.974;2023-02-26T04:17:58;3.90;;;1.00;;
45863;SDS011;31579;52.354;16.974;2023-02-26T04:22:58;3.80;;;0.90;;
45863;SDS011;31579;52.354;16.974;2023-02-26T04:27:58;3.80;;;0.90;;
45863;SDS011;31579;52.354;16.974;2023-02-26T04:32:58;5.90;;;1.10;;
45863;SDS011;31579;52.354;16.974;2023-02-26T04:37:58;5.90;;;1.10;;
45863;SDS011;31579;52.354;16.974;2023-02-26T04:42:58;5.20;;;0.90;;
45863;SDS011;31579;52.354;16.974;2023-02-26T04:47:58;5.20;;;0.90;;
45863;SDS011;31579;52.354;16.974;2023-02-26T04:52:58;4.90;;;1.00;;
45863;SDS011;31579;52.354;16.974;2023-02-26T04:57:58;4.90;;;1.00;;
45863;SDS011;31579;52.354;16.974;2023-02-26T04:59:41;4.90;;;1.00;;
45863;SDS011;31579;52.354;16.974;2023-02-26T05:04:39;4.50;;;0.90;;
45863;SDS011;31579;52.354;16.974;2023-02-26T05:09:39;4.50;;;0.90;;
45863;SDS011;31579;52.354;16.974;2023-02-26T05:14:39;3.20;;;1.00;;
45863;SDS011;31579;52.354;16.974;2023-02-26T05:19:39;3.20;;;1.00;;
45863;SDS011;31579;52.354;16.974;2023-02-26T05:24:39;4.70;;;1.00;;
45863;SDS011;31579;52.354;16.974;2023-02-26T05:29:39;4.70;;;1.00;;
45863;SDS011;31579;52.354;16.974;2023-02-26T05:34:39;3.00;;;0.90;;
45863;SDS011;31579;52.354;16.974;2023-02-26T05:39:39;3.00;;;0.90;;
45863;SDS011;31579;52.354;16.974;2023-02-26T05:44:39;3.90;;;0.90;;
45863;SDS011;31579;52.354;16.974;2023-02-26T05:49:39;3.90;;;0.90;;
45863;SDS011;31579;52.354;16.974;2023-02-26T05:54:39;4.70;;;1.30;;
45863;SDS011;31579;52.354;16.974;2023-02-26T05:59:43;4.70;;;1.30;;
45863;SDS011;31579;52.354;16.974;2023-02-26T06:04:39;2.90;;;0.90;;
45863;SDS011;31579;52.354;16.974;2023-02-26T06:09:39;2.90;;;0.90;;
45863;SDS011;31579;52.354;16.974;2023-02-26T06:14:39;4.40;;;1.10;;
45863;SDS011;31579;52.354;16.974;2023-02-26T06:19:43;4.40;;;1.10;;
45863;SDS011;31579;52.354;16.974;2023-02-26T06:24:39;5.90;;;1.10;;
45863;SDS011;31579;52.354;16.974;2023-02-26T06:29:39;5.90;;;1.10;;
45863;SDS011;31579;52.354;16.974;2023-02-26T06:34:39;4.30;;;1.10;;
45863;SDS011;31579;52.354;16.974;2023-02-26T06:39:43;4.30;;;1.10;;
45863;SDS011;31579;52.354;16.974;2023-02-26T06:44:39;4.30;;;1.40;;
45863;SDS011;31579;52.354;16.974;2023-02-26T06:49:39;4.30;;;1.40;;
45863;SDS011;31579;52.354;16.974;2023-02-26T06:54:39;4.10;;;1.20;;
45863;SDS011;31579;52.354;16.974;2023-02-26T06:59:42;4.10;;;1.20;;
45863;SDS011;31579;52.354;16.974;2023-02-26T07:01:45;4.10;;;1.20;;
45863;SDS011;31579;52.354;16.974;2023-02-26T07:06:43;6.90;;;1.50;;
45863;SDS011;31579;52.354;16.974;2023-02-26T07:11:43;6.90;;;1.50;;
45863;SDS011;31579;52.354;16.974;2023-02-26T07:16:43;4.30;;;1.50;;
45863;SDS011;31579;52.354;16.974;2023-02-26T07:21:43;4.30;;;1.50;;
45863;SDS011;31579;52.354;16.974;2023-02-26T07:26:43;4.70;;;1.60;;
45863;SDS011;31579;52.354;16.974;2023-02-26T07:31:43;4.70;;;1.60;;
45863;SDS011;31579;52.354;16.974;2023-02-26T07:36:43;4.50;;;1.40;;
45863;SDS011;31579;52.354;16.974;2023-02-26T07:41:43;4.50;;;1.40;;
45863;SDS011;31579;52.354;16.974;2023-02-26T07:46:43;7.70;;;1.50;;
45863;SDS011;31579;52.354;16.974;2023-02-26T07:51:43;7.70;;;1.50;;
45863;SDS011;31579;52.354;16.974;2023-02-26T07:56:43;3.60;;;1.40;;
45863;SDS011;31579;52.354;16.974;2023-02-26T08:01:47;3.60;;;1.40;;
45863;SDS011;31579;52.354;16.974;2023-02-26T08:06:43;6.30;;;1.90;;
45863;SDS011;31579;52.354;16.974;2023-02-26T08:11:43;6.30;;;1.90;;
45863;SDS011;31579;52.354;16.974;2023-02-26T08:16:43;5.70;;;1.70;;
45863;SDS011;31579;52.354;16.974;2023-02-26T08:21:46;5.70;;;1.70;;
45863;SDS011;31579;52.354;16.974;2023-02-26T08:26:43;3.90;;;1.10;;
45863;SDS011;31579;52.354;16.974;2023-02-26T08:31:43;3.90;;;1.10;;
45863;SDS011;31579;52.354;16.974;2023-02-26T08:36:43;6.60;;;1.10;;
45863;SDS011;31579;52.354;16.974;2023-02-26T08:41:46;6.60;;;1.10;;
45863;SDS011;31579;52.354;16.974;2023-02-26T08:46:43;3.00;;;0.90;;
45863;SDS011;31579;52.354;16.974;2023-02-26T08:51:43;3.00;;;0.90;;
45863;SDS011;31579;52.354;16.974;2023-02-26T08:56:43;6.70;;;1.40;;
45863;SDS011;31579;52.354;16.974;2023-02-26T09:01:47;6.70;;;1.40;;
45863;SDS011;31579;52.354;16.974;2023-02-26T09:06:43;5.20;;;1.50;;
45863;SDS011;31579;52.354;16.974;2023-02-26T09:11:54;5.20;;;1.50;;
45863;SDS011;31579;52.354;16.974;2023-02-26T09:13:05;5.20;;;1.50;;
45863;SDS011;31579;52.354;16.974;2023-02-26T09:18:03;5.90;;;1.30;;
45863;SDS011;31579;52.354;16.974;2023-02-26T09:23:03;6.60;;;2.60;;
45863;SDS011;31579;52.354;16.974;2023-02-26T09:28:04;6.60;;;2.60;;
45863;SDS011;31579;52.354;16.974;2023-02-26T09:29:06;6.60;;;2.60;;
45863;SDS011;31579;52.354;16.974;2023-02-26T09:34:04;14.30;;;7.10;;
45863;SDS011;31579;52.354;16.974;2023-02-26T09:39:04;14.30;;;7.10;;
45863;SDS011;31579;52.354;16.974;2023-02-26T09:46:09;10.30;;;2.90;;
45863;SDS011;31579;52.354;16.974;2023-02-26T09:51:03;10.30;;;2.90;;
45863;SDS011;31579;52.354;16.974;2023-02-26T09:57:41;8.20;;;1.80;;
45863;SDS011;31579;52.354;16.974;2023-02-26T10:13:04;6.40;;;2.50;;
45863;SDS011;31579;52.354;16.974;2023-02-26T10:38:07;8.40;;;3.50;;
45863;SDS011;31579;52.354;16.974;2023-02-26T10:53:04;6.50;;;1.20;;
45863;SDS011;31579;52.354;16.974;2023-02-26T11:03:04;6.80;;;1.30;;
45863;SDS011;31579;52.354;16.974;2023-02-26T11:12:40;6.60;;;1.10;;
45863;SDS011;31579;52.354;16.974;2023-02-26T11:17:40;6.60;;;1.10;;
45863;SDS011;31579;52.354;16.974;2023-02-26T11:22:42;4.10;;;1.10;;
45863;SDS011;31579;52.354;16.974;2023-02-26T11:27:40;4.10;;;1.10;;
45863;SDS011;31579;52.354;16.974;2023-02-26T11:32:40;4.80;;;1.00;;
45863;SDS011;31579;52.354;16.974;2023-02-26T11:37:46;4.80;;;1.00;;
45863;SDS011;31579;52.354;16.974;2023-02-26T11:47:06;4.90;;;1.30;;
45863;SDS011;31579;52.354;16.974;2023-02-26T11:57:05;5.40;;;1.10;;
45863;SDS011;31579;52.354;16.974;2023-02-26T11:58:16;5.40;;;1.10;;
45863;SDS011;31579;52.354;16.974;2023-02-26T12:08:15;2.80;;;0.80;;
45863;SDS011;31579;52.354;16.974;2023-02-26T12:43:20;8.60;;;2.00;;
45863;SDS011;31579;52.354;16.974;2023-02-26T13:23:13;7.70;;;1.50;;
45863;SDS011;31579;52.354;16.974;2023-02-26T13:29:22;7.70;;;1.50;;
45863;SDS011;31579;52.354;16.974;2023-02-26T14:26:04;3.10;;;0.70;;
45863;SDS011;31579;52.354;16.974;2023-02-26T14:36:03;6.20;;;1.60;;
45863;SDS011;31579;52.354;16.974;2023-02-26T14:46:03;3.60;;;0.90;;
45863;SDS011;31579;52.354;16.974;2023-02-26T14:56:09;3.80;;;1.00;;
45863;SDS011;31579;52.354;16.974;2023-02-26T15:11:04;3.70;;;0.90;;
45863;SDS011;31579;52.354;16.974;2023-02-26T15:16:06;3.70;;;0.90;;
45863;SDS011;31579;52.354;16.974;2023-02-26T15:22:02;3.90;;;0.90;;
45863;SDS011;31579;52.354;16.974;2023-02-26T15:26:57;3.90;;;0.90;;
45863;SDS011;31579;52.354;16.974;2023-02-26T15:32:05;5.20;;;1.20;;
45863;SDS011;31579;52.354;16.974;2023-02-26T15:36:55;5.20;;;1.20;;
45863;SDS011;31579;52.354;16.974;2023-02-26T15:41:54;3.60;;;0.90;;
45863;SDS011;31579;52.354;16.974;2023-02-26T15:46:58;3.60;;;0.90;;
45863;SDS011;31579;52.354;16.974;2023-02-26T15:51:55;3.20;;;0.90;;
45863;SDS011;31579;52.354;16.974;2023-02-26T15:56:54;3.20;;;0.90;;
45863;SDS011;31579;52.354;16.974;2023-02-26T16:01:55;6.70;;;2.00;;
45863;SDS011;31579;52.354;16.974;2023-02-26T16:06:55;6.70;;;2.00;;
45863;SDS011;31579;52.354;16.974;2023-02-26T16:11:56;7.50;;;1.80;;
45863;SDS011;31579;52.354;16.974;2023-02-26T16:16:54;7.50;;;1.80;;
45863;SDS011;31579;52.354;16.974;2023-02-26T16:21:55;4.40;;;1.60;;
45863;SDS011;31579;52.354;16.974;2023-02-26T16:26:55;4.40;;;1.60;;
45863;SDS011;31579;52.354;16.974;2023-02-26T16:31:56;3.60;;;1.20;;
45863;SDS011;31579;52.354;16.974;2023-02-26T16:37:08;3.60;;;1.20;;
45863;SDS011;31579;52.354;16.974;2023-02-26T16:46:55;4.70;;;1.20;;
45863;SDS011;31579;52.354;16.974;2023-02-26T16:51:55;12.00;;;4.70;;
45863;SDS011;31579;52.354;16.974;2023-02-26T16:56:57;12.00;;;4.70;;
45863;SDS011;31579;52.354;16.974;2023-02-26T16:59:29;12.00;;;4.70;;
45863;SDS011;31579;52.354;16.974;2023-02-26T17:04:30;14.00;;;4.50;;
45863;SDS011;31579;52.354;16.974;2023-02-26T17:09:34;14.00;;;4.50;;
45863;SDS011;31579;52.354;16.974;2023-02-26T17:14:30;5.70;;;1.50;;
45863;SDS011;31579;52.354;16.974;2023-02-26T17:19:25;5.70;;;1.50;;
45863;SDS011;31579;52.354;16.974;2023-02-26T17:24:29;16.70;;;10.90;;
45863;SDS011;31579;52.354;16.974;2023-02-26T17:27:33;16.70;;;10.90;;
45863;SDS011;31579;52.354;16.974;2023-02-26T17:32:27;4.70;;;1.50;;
45863;SDS011;31579;52.354;16.974;2023-02-26T17:37:29;4.70;;;1.50;;
45863;SDS011;31579;52.354;16.974;2023-02-26T17:42:30;6.90;;;2.90;;
45863;SDS011;31579;52.354;16.974;2023-02-26T17:47:27;6.90;;;2.90;;
45863;SDS011;31579;52.354;16.974;2023-02-26T17:52:27;5.00;;;1.60;;
45863;SDS011;31579;52.354;16.974;2023-02-26T17:57:27;5.00;;;1.60;;
45863;SDS011;31579;52.354;16.974;2023-02-26T18:02:27;5.30;;;1.90;;
45863;SDS011;31579;52.354;16.974;2023-02-26T18:07:27;5.30;;;1.90;;
45863;SDS011;31579;52.354;16.974;2023-02-26T18:12:27;6.30;;;2.10;;
45863;SDS011;31579;52.354;16.974;2023-02-26T18:17:28;6.30;;;2.10;;
45863;SDS011;31579;52.354;16.974;2023-02-26T18:22:27;6.40;;;2.60;;
45863;SDS011;31579;52.354;16.974;2023-02-26T18:27:27;6.40;;;2.60;;
45863;SDS011;31579;52.354;16.974;2023-02-26T18:32:27;8.00;;;2.50;;
45863;SDS011;31579;52.354;16.974;2023-02-26T18:37:27;8.00;;;2.50;;
45863;SDS011;31579;52.354;16.974;2023-02-26T18:42:27;8.40;;;3.10;;
45863;SDS011;31579;52.354;16.974;2023-02-26T18:47:27;8.40;;;3.10;;
45863;SDS011;31579;52.354;16.974;2023-02-26T18:52:27;16.30;;;7.30;;
45863;SDS011;31579;52.354;16.974;2023-02-26T18:57:28;16.30;;;7.30;;
45863;SDS011;31579;52.354;16.974;2023-02-26T19:02:27;13.60;;;5.80;;
45863;SDS011;31579;52.354;16.974;2023-02-26T19:07:27;13.60;;;5.80;;
45863;SDS011;31579;52.354;16.974;2023-02-26T19:12:27;6.20;;;2.80;;
45863;SDS011;31579;52.354;16.974;2023-02-26T19:17:27;6.20;;;2.80;;
45863;SDS011;31579;52.354;16.974;2023-02-26T19:22:27;39.30;;;17.30;;
45863;SDS011;31579;52.354;16.974;2023-02-26T19:27:27;39.30;;;17.30;;
45863;SDS011;31579;52.354;16.974;2023-02-26T19:32:27;11.60;;;3.90;;
45863;SDS011;31579;52.354;16.974;2023-02-26T19:37:27;11.60;;;3.90;;
45863;SDS011;31579;52.354;16.974;2023-02-26T19:42:27;11.00;;;4.10;;
45863;SDS011;31579;52.354;16.974;2023-02-26T19:47:27;11.00;;;4.10;;
45863;SDS011;31579;52.354;16.974;2023-02-26T19:52:27;15.80;;;6.10;;
45863;SDS011;31579;52.354;16.974;2023-02-26T19:57:29;15.80;;;6.10;;
45863;SDS011;31579;52.354;16.974;2023-02-26T20:02:27;10.50;;;3.90;;
45863;SDS011;31579;52.354;16.974;2023-02-26T20:07:27;10.50;;;3.90;;
45863;SDS011;31579;52.354;16.974;2023-02-26T20:12:27;6.70;;;2.30;;
45863;SDS011;31579;52.354;16.974;2023-02-26T20:17:27;6.70;;;2.30;;
45863;SDS011;31579;52.354;16.974;2023-02-26T20:22:27;4.90;;;1.60;;
45863;SDS011;31579;52.354;16.974;2023-02-26T20:27:27;4.90;;;1.60;;
45863;SDS011;31579;52.354;16.974;2023-02-26T20:36:05;6.70;;;3.00;;
45863;SDS011;31579;52.354;16.974;2023-02-26T20:40:50;6.70;;;3.00;;
45863;SDS011;31579;52.354;16.974;2023-02-26T20:45:49;5.80;;;1.90;;
45863;SDS011;31579;52.354;16.974;2023-02-26T20:50:49;5.00;;;2.20;;
45863;SDS011;31579;52.354;16.974;2023-02-26T20:55:49;5.00;;;2.20;;
45863;SDS011;31579;52.354;16.974;2023-02-26T21:00:49;6.30;;;3.50;;
45863;SDS011;31579;52.354;16.974;2023-02-26T21:05:49;6.30;;;3.50;;
45863;SDS011;31579;52.354;16.974;2023-02-26T21:10:49;7.30;;;2.40;;
45863;SDS011;31579;52.354;16.974;2023-02-26T21:15:49;7.30;;;2.40;;
45863;SDS011;31579;52.354;16.974;2023-02-26T21:20:49;5.20;;;2.40;;
45863;SDS011;31579;52.354;16.974;2023-02-26T21:25:49;5.20;;;2.40;;
45863;SDS011;31579;52.354;16.974;2023-02-26T21:30:50;5.30;;;1.50;;
45863;SDS011;31579;52.354;16.974;2023-02-26T21:36:28;5.30;;;1.50;;
45863;SDS011;31579;52.354;16.974;2023-02-26T21:37:04;5.30;;;1.50;;
45863;SDS011;31579;52.354;16.974;2023-02-26T21:41:58;6.00;;;1.60;;
45863;SDS011;31579;52.354;16.974;2023-02-26T21:46:58;6.00;;;1.60;;
45863;SDS011;31579;52.354;16.974;2023-02-26T21:51:58;4.80;;;1.90;;
45863;SDS011;31579;52.354;16.974;2023-02-26T21:56:58;4.80;;;1.90;;
45863;SDS011;31579;52.354;16.974;2023-02-26T22:01:58;7.80;;;2.40;;
45863;SDS011;31579;52.354;16.974;2023-02-26T22:06:58;7.80;;;2.40;;
45863;SDS011;31579;52.354;16.974;2023-02-26T22:11:58;7.90;;;2.40;;
45863;SDS011;31579;52.354;16.974;2023-02-26T22:16:58;7.90;;;2.40;;
45863;SDS011;31579;52.354;16.974;2023-02-26T22:17:06;7.90;;;2.40;;
45863;SDS011;31579;52.354;16.974;2023-02-26T22:22:04;10.30;;;2.80;;
45863;SDS011;31579;52.354;16.974;2023-02-26T22:27:04;10.30;;;2.80;;
45863;SDS011;31579;52.354;16.974;2023-02-26T22:32:04;7.90;;;3.20;;
45863;SDS011;31579;52.354;16.974;2023-02-26T22:37:04;7.90;;;3.20;;
45863;SDS011;31579;52.354;16.974;2023-02-26T22:42:04;9.40;;;3.00;;
45863;SDS011;31579;52.354;16.974;2023-02-26T22:47:14;9.40;;;3.00;;
45863;SDS011;31579;52.354;16.974;2023-02-26T22:52:12;8.50;;;2.90;;
45863;SDS011;31579;52.354;16.974;2023-02-26T22:57:12;8.50;;;2.90;;
45863;SDS011;31579;52.354;16.974;2023-02-26T23:02:12;11.00;;;3.00;;
45863;SDS011;31579;52.354;16.974;2023-02-26T23:07:12;11.00;;;3.00;;
45863;SDS011;31579;52.354;16.974;2023-02-26T23:12:12;8.10;;;2.80;;
45863;SDS011;31579;52.354;16.974;2023-02-26T23:17:13;8.10;;;2.80;;
45863;SDS011;31579;52.354;16.974;2023-02-26T23:22:12;8.80;;;2.90;;
45863;SDS011;31579;52.354;16.974;2023-02-26T23:27:13;8.80;;;2.90;;
45863;SDS011;31579;52.354;16.974;2023-02-26T23:32:12;9.10;;;2.90;;
45863;SDS011;31579;52.354;16.974;2023-02-26T23:37:12;9.10;;;2.90;;
45863;SDS011;31579;52.354;16.974;2023-02-26T23:42:12;9.80;;;3.00;;
45863;SDS011;31579;52.354;16.974;2023-02-26T23:47:12;9.80;;;3.00;;
45863;SDS011;31579;52.354;16.974;2023-02-26T23:52:12;8.00;;;2.90;;
45863;SDS011;31579;52.354;16.974;2023-02-26T23:57:12;8.00;;;2.90;;
